createdAt,value
2023-03-06T00:00:50.016Z,9.681345
2023-03-06T00:01:49.964Z,9.681145
2023-03-06T00:02:49.962Z,9.681264
2023-03-06T00:03:50.016Z,9.681223
2023-03-06T00:04:49.951Z,9.681172
2023-03-06T00:05:50.036Z,9.681172
2023-03-06T00:06:49.964Z,9.681172
2023-03-06T00:07:49.934Z,9.681172
2023-03-06T00:08:49.933Z,9.681172
2023-03-06T00:09:49.914Z,9.681172
2023-03-06T00:10:49.934Z,9.681172
2023-03-06T00:11:49.933Z,9.681172
2023-03-06T00:12:49.904Z,9.681172
2023-03-06T00:13:49.908Z,9.681172
2023-03-06T00:14:49.905Z,9.681172
2023-03-06T00:15:49.958Z,9.681172
2023-03-06T00:16:49.902Z,9.681172
2023-03-06T00:17:49.878Z,9.681172
2023-03-06T00:18:49.869Z,9.681172
2023-03-06T00:19:49.867Z,9.681172
2023-03-06T00:20:49.862Z,9.681172
2023-03-06T00:22:56.863Z,9.681172
2023-03-06T00:23:49.838Z,9.681172
2023-03-06T00:24:49.835Z,9.681172
2023-03-06T00:25:49.835Z,9.681172
2023-03-06T00:26:49.847Z,9.681172
2023-03-06T00:27:49.830Z,9.681172
2023-03-06T00:28:49.805Z,9.681172
2023-03-06T00:29:49.807Z,9.681172
2023-03-06T00:30:49.796Z,9.681172
2023-03-06T00:31:49.921Z,9.681172
2023-03-06T00:32:49.832Z,9.681172
2023-03-06T00:33:49.800Z,9.681172
2023-03-06T00:34:49.772Z,9.681172
2023-03-06T00:35:49.837Z,9.681172
2023-03-06T00:36:49.772Z,9.681172
2023-03-06T00:37:49.750Z,9.681172
2023-03-06T00:38:49.772Z,9.681172
2023-03-06T00:39:49.747Z,9.681172
2023-03-06T00:40:49.740Z,9.681172
2023-03-06T00:41:49.734Z,9.681172
2023-03-06T00:42:49.759Z,9.681172
2023-03-06T00:43:49.712Z,9.681172
2023-03-06T00:44:49.743Z,9.681172
2023-03-06T00:45:49.710Z,9.681172
2023-03-06T00:46:49.700Z,9.681172
2023-03-06T00:47:49.703Z,9.681172
2023-03-06T00:48:49.700Z,9.681172
2023-03-06T00:49:49.677Z,9.681172
2023-03-06T00:50:49.703Z,9.681172
2023-03-06T00:51:49.717Z,9.681172
2023-03-06T00:52:49.674Z,9.681172
2023-03-06T00:53:49.659Z,9.681172
2023-03-06T00:54:49.659Z,9.681172
2023-03-06T00:55:49.645Z,9.681172
2023-03-06T00:56:49.631Z,9.681172
2023-03-06T00:57:49.668Z,9.681172
2023-03-06T00:58:49.629Z,9.681172
2023-03-06T00:59:49.634Z,9.681172
2023-03-06T01:00:49.647Z,9.681172
2023-03-06T01:01:49.659Z,9.681172
2023-03-06T01:02:49.597Z,9.681172
2023-03-06T01:03:49.641Z,9.681172
2023-03-06T01:04:49.602Z,9.681172
2023-03-06T01:05:49.601Z,9.681172
2023-03-06T01:06:49.584Z,9.681172
2023-03-06T01:07:49.575Z,9.681172
2023-03-06T01:08:49.581Z,9.681172
2023-03-06T01:09:49.598Z,9.681172
2023-03-06T01:10:49.564Z,9.681172
2023-03-06T01:11:49.557Z,9.681172
2023-03-06T01:12:49.616Z,9.681172
2023-03-06T01:13:49.526Z,9.681172
2023-03-06T01:14:49.521Z,9.681172
2023-03-06T01:15:49.515Z,9.681172
2023-03-06T01:16:49.512Z,9.681172
2023-03-06T01:17:49.507Z,9.681172
2023-03-06T01:18:49.528Z,9.681172
2023-03-06T01:19:49.488Z,9.681172
2023-03-06T01:20:49.478Z,9.681172
2023-03-06T01:21:49.527Z,9.681172
2023-03-06T01:22:49.474Z,9.681172
2023-03-06T01:23:49.469Z,9.681172
2023-03-06T01:24:49.459Z,9.681172
2023-03-06T01:25:49.458Z,9.681172
2023-03-06T01:26:49.446Z,9.681172
2023-03-06T01:27:49.447Z,9.681172
2023-03-06T01:28:49.439Z,9.681172
2023-03-06T01:29:49.451Z,9.681172
2023-03-06T01:30:49.437Z,9.681172
2023-03-06T01:31:49.420Z,9.681172
2023-03-06T01:32:49.411Z,9.681172
2023-03-06T01:33:49.392Z,9.681769
2023-03-06T01:34:49.441Z,9.681183
2023-03-06T01:35:49.448Z,9.681193
2023-03-06T01:36:49.397Z,9.681273
2023-03-06T01:37:49.401Z,9.681113
2023-03-06T01:38:49.369Z,9.681166
2023-03-06T01:39:49.376Z,9.681188
2023-03-06T01:40:49.364Z,9.681092
2023-03-06T01:41:49.347Z,9.681190
2023-03-06T01:42:49.354Z,9.681554
2023-03-06T01:43:49.385Z,9.680986
2023-03-06T01:44:49.333Z,9.681520
2023-03-06T01:45:49.414Z,9.681001
2023-03-06T01:46:49.317Z,9.681044
2023-03-06T01:47:49.323Z,9.681572
2023-03-06T01:48:49.335Z,9.681264
2023-03-06T01:49:49.302Z,9.681344
2023-03-06T01:50:49.290Z,9.681458
2023-03-06T01:51:49.326Z,9.681586
2023-03-06T01:52:49.268Z,9.681435
2023-03-06T01:53:49.266Z,9.681383
2023-03-06T01:54:49.280Z,9.681297
2023-03-06T01:55:49.248Z,9.681572
2023-03-06T01:56:49.245Z,9.681400
2023-03-06T01:57:49.237Z,9.681361
2023-03-06T01:58:49.250Z,9.681495
2023-03-06T01:59:49.227Z,9.681828
2023-03-06T02:00:49.330Z,9.681673
2023-03-06T02:01:49.213Z,9.681379
2023-03-06T02:02:49.226Z,9.681356
2023-03-06T02:03:49.211Z,9.681451
2023-03-06T02:04:49.195Z,9.681269
2023-03-06T02:05:49.198Z,9.681194
2023-03-06T02:06:49.192Z,9.681242
2023-03-06T02:07:49.194Z,9.681231
2023-03-06T02:08:49.188Z,9.681593
2023-03-06T02:09:49.160Z,9.681483
2023-03-06T02:10:49.174Z,9.681655
2023-03-06T02:11:49.242Z,9.681235
2023-03-06T02:12:49.154Z,9.680881
2023-03-06T02:13:49.148Z,9.681303
2023-03-06T02:14:49.145Z,9.681623
2023-03-06T02:15:49.141Z,9.681799
2023-03-06T02:16:49.192Z,9.681515
2023-03-06T02:17:49.140Z,9.681394
2023-03-06T02:18:49.107Z,9.681048
2023-03-06T02:19:49.098Z,9.681355
2023-03-06T02:20:49.107Z,9.681490
2023-03-06T02:21:49.088Z,9.681391
2023-03-06T02:22:49.077Z,9.681435
2023-03-06T02:23:49.089Z,9.681611
2023-03-06T02:24:49.063Z,9.681598
2023-03-06T02:25:49.060Z,9.681391
2023-03-06T02:26:49.068Z,9.681591
2023-03-06T02:27:49.055Z,9.681175
2023-03-06T02:28:49.058Z,9.681268
2023-03-06T02:29:49.028Z,9.681441
2023-03-06T02:30:49.100Z,9.681519
2023-03-06T02:31:49.014Z,9.681023
2023-03-06T02:32:49.009Z,9.681421
2023-03-06T02:33:49.030Z,9.681388
2023-03-06T02:34:48.997Z,9.681352
2023-03-06T02:35:49.008Z,9.681563
2023-03-06T02:36:49.021Z,9.681674
2023-03-06T02:37:48.990Z,9.681470
2023-03-06T02:38:48.997Z,9.681427
2023-03-06T02:39:48.975Z,9.681427
2023-03-06T02:40:48.969Z,9.681427
2023-03-06T02:41:48.965Z,9.681427
2023-03-06T02:42:48.977Z,9.681427
2023-03-06T02:43:48.956Z,9.681427
2023-03-06T02:44:48.936Z,9.681427
2023-03-06T02:45:49.019Z,9.681427
2023-03-06T02:46:48.922Z,9.681427
2023-03-06T02:47:48.920Z,9.680816
2023-03-06T02:48:48.909Z,9.680816
2023-03-06T02:49:48.915Z,9.680816
2023-03-06T02:50:48.905Z,9.680816
2023-03-06T02:51:48.886Z,9.680816
2023-03-06T02:52:48.876Z,9.680816
2023-03-06T02:53:48.886Z,9.680816
2023-03-06T02:54:48.876Z,9.680816
2023-03-06T02:55:48.867Z,9.680816
2023-03-06T02:56:48.856Z,9.680816
2023-03-06T02:57:48.865Z,9.680816
2023-03-06T02:58:48.838Z,9.680816
2023-03-06T02:59:48.836Z,9.680816
2023-03-06T03:00:48.817Z,9.680816
2023-03-06T03:01:48.918Z,9.680816
2023-03-06T03:02:48.833Z,9.680816
2023-03-06T03:03:48.810Z,9.680816
2023-03-06T03:04:48.841Z,9.680816
2023-03-06T03:05:48.779Z,9.680816
2023-03-06T03:06:48.813Z,9.680816
2023-03-06T03:07:48.772Z,9.680816
2023-03-06T03:08:48.792Z,9.680816
2023-03-06T03:09:48.786Z,9.681733
2023-03-06T03:10:48.755Z,9.681579
2023-03-06T03:11:48.737Z,9.681382
2023-03-06T03:12:48.738Z,9.681902
2023-03-06T03:13:48.727Z,9.681445
2023-03-06T03:14:48.735Z,9.681390
2023-03-06T03:15:48.791Z,9.681203
2023-03-06T03:16:48.715Z,9.681396
2023-03-06T03:17:48.704Z,9.681396
2023-03-06T03:18:48.705Z,9.681396
2023-03-06T03:19:48.689Z,9.681396
2023-03-06T03:20:48.715Z,9.681396
2023-03-06T03:21:48.680Z,9.680601
2023-03-06T03:22:48.680Z,9.680289
2023-03-06T03:23:48.682Z,9.681886
2023-03-06T03:24:48.686Z,9.681410
2023-03-06T03:25:48.646Z,9.681458
2023-03-06T03:26:48.675Z,9.681301
2023-03-06T03:27:48.650Z,9.681184
2023-03-06T03:28:48.642Z,9.680846
2023-03-06T03:29:48.634Z,9.680679
2023-03-06T03:30:48.675Z,9.680807
2023-03-06T03:31:48.643Z,9.680948
2023-03-06T03:32:48.638Z,9.681411
2023-03-06T03:33:48.616Z,9.681662
2023-03-06T03:34:48.610Z,9.681776
2023-03-06T03:35:48.657Z,9.681148
2023-03-06T03:36:48.606Z,9.681068
2023-03-06T03:37:48.607Z,9.681051
2023-03-06T03:38:48.582Z,9.681275
2023-03-06T03:39:48.568Z,9.681115
2023-03-06T03:40:48.560Z,9.680964
2023-03-06T03:41:48.564Z,9.680690
2023-03-06T03:42:48.557Z,9.680690
2023-03-06T03:43:48.552Z,9.680690
2023-03-06T03:44:48.554Z,9.681638
2023-03-06T03:45:48.517Z,9.681424
2023-03-06T03:46:48.584Z,9.681424
2023-03-06T03:47:48.556Z,9.681424
2023-03-06T03:48:48.511Z,9.681424
2023-03-06T03:49:48.496Z,9.680649
2023-03-06T03:50:48.491Z,9.680639
2023-03-06T03:51:48.482Z,9.680824
2023-03-06T03:52:48.486Z,9.681058
2023-03-06T03:53:48.484Z,9.680980
2023-03-06T03:54:48.481Z,9.681038
2023-03-06T03:55:48.470Z,9.680873
2023-03-06T03:56:48.454Z,9.680809
2023-03-06T03:57:48.459Z,9.680797
2023-03-06T03:58:48.464Z,9.680626
2023-03-06T03:59:48.425Z,9.680948
2023-03-06T04:00:48.428Z,9.681062
2023-03-06T04:01:48.472Z,9.681027
2023-03-06T04:02:48.425Z,9.680833
2023-03-06T04:03:48.423Z,9.680690
2023-03-06T04:04:48.401Z,9.680821
2023-03-06T04:05:48.428Z,9.681070
2023-03-06T04:06:48.372Z,9.681007
2023-03-06T04:07:48.375Z,9.680740
2023-03-06T04:08:48.370Z,9.681046
2023-03-06T04:09:48.357Z,9.681209
2023-03-06T04:10:48.367Z,9.681014
2023-03-06T04:11:48.346Z,9.680923
2023-03-06T04:12:48.349Z,9.680719
2023-03-06T04:13:48.328Z,9.680636
2023-03-06T04:14:48.316Z,9.680959
2023-03-06T04:15:48.330Z,9.680869
2023-03-06T04:16:48.312Z,9.680653
2023-03-06T04:17:48.307Z,9.680891
2023-03-06T04:18:48.302Z,9.681104
2023-03-06T04:19:48.287Z,9.681388
2023-03-06T04:20:48.300Z,9.681767
2023-03-06T04:21:48.277Z,9.681955
2023-03-06T04:22:48.274Z,9.681574
2023-03-06T04:23:48.278Z,9.681708
2023-03-06T04:24:48.257Z,9.681583
2023-03-06T04:25:48.248Z,9.681041
2023-03-06T04:26:48.250Z,9.681170
2023-03-06T04:27:48.238Z,9.681442
2023-03-06T04:28:48.247Z,9.681180
2023-03-06T04:29:48.223Z,9.681213
2023-03-06T04:30:48.244Z,9.681087
2023-03-06T04:31:48.246Z,9.681129
2023-03-06T04:32:48.205Z,9.681078
2023-03-06T04:33:48.236Z,9.681090
2023-03-06T04:34:48.198Z,9.681118
2023-03-06T04:35:48.232Z,9.680790
2023-03-06T04:36:48.183Z,9.680757
2023-03-06T04:37:48.184Z,9.680606
2023-03-06T04:38:48.211Z,9.680828
2023-03-06T04:39:48.176Z,9.681015
2023-03-06T04:40:48.156Z,9.681586
2023-03-06T04:41:48.155Z,9.681175
2023-03-06T04:42:48.140Z,9.681441
2023-03-06T04:43:48.161Z,9.681654
2023-03-06T04:44:48.129Z,9.681538
2023-03-06T04:45:48.165Z,9.681834
2023-03-06T04:46:48.123Z,9.681447
2023-03-06T04:47:48.117Z,9.681361
2023-03-06T04:48:48.113Z,9.681050
2023-03-06T04:49:48.117Z,9.681037
2023-03-06T04:50:48.087Z,9.680673
2023-03-06T04:51:48.097Z,9.680867
2023-03-06T04:52:48.075Z,9.680821
2023-03-06T04:53:48.075Z,9.680980
2023-03-06T04:54:48.114Z,9.680722
2023-03-06T04:55:48.061Z,9.680671
2023-03-06T04:56:48.050Z,9.680655
2023-03-06T04:57:48.062Z,9.680494
2023-03-06T04:58:48.041Z,9.680813
2023-03-06T04:59:48.058Z,9.680805
2023-03-06T05:00:48.037Z,9.680840
2023-03-06T05:01:48.046Z,9.680737
2023-03-06T05:02:48.030Z,9.680639
2023-03-06T05:03:48.006Z,9.680757
2023-03-06T05:04:48.000Z,9.680770
2023-03-06T05:05:48.016Z,9.680395
2023-03-06T05:06:47.982Z,9.681398
2023-03-06T05:07:47.981Z,9.678829
2023-03-06T05:08:47.984Z,9.679063
2023-03-06T05:09:47.971Z,9.677614
2023-03-06T05:10:47.963Z,9.677614
2023-03-06T05:11:47.975Z,9.677614
2023-03-06T05:12:47.945Z,9.677614
2023-03-06T05:13:47.961Z,9.677614
2023-03-06T05:14:48.186Z,9.677614
2023-03-06T05:15:47.923Z,9.677614
2023-03-06T05:16:47.960Z,9.677614
2023-03-06T05:17:47.949Z,9.677614
2023-03-06T05:18:50.465Z,9.677614
2023-03-06T05:19:47.910Z,9.677614
2023-03-06T05:20:47.902Z,9.677614
2023-03-06T05:21:47.883Z,9.677614
2023-03-06T05:22:47.909Z,9.677614
2023-03-06T05:23:47.869Z,9.677614
2023-03-06T05:24:47.877Z,9.677614
2023-03-06T05:25:47.856Z,9.677614
2023-03-06T05:26:47.855Z,9.677614
2023-03-06T05:27:47.845Z,9.677614
2023-03-06T05:28:47.868Z,9.677614
2023-03-06T05:29:47.870Z,9.677614
2023-03-06T05:30:47.831Z,9.677614
2023-03-06T05:31:47.871Z,9.679692
2023-03-06T05:32:47.924Z,9.679692
2023-03-06T05:33:47.853Z,9.678173
2023-03-06T05:34:47.830Z,9.679217
2023-03-06T05:35:47.874Z,9.679570
2023-03-06T05:36:47.827Z,9.679570
2023-03-06T05:37:47.796Z,9.679570
2023-03-06T05:38:47.779Z,9.679570
2023-03-06T05:39:47.769Z,9.679570
2023-03-06T05:40:47.784Z,9.679570
2023-03-06T05:41:47.767Z,9.679570
2023-03-06T05:42:47.777Z,9.679570
2023-03-06T05:43:47.767Z,9.679570
2023-03-06T05:44:47.761Z,9.679570
2023-03-06T05:45:47.784Z,9.679570
2023-03-06T05:46:47.760Z,9.679570
2023-03-06T05:47:47.756Z,9.679570
2023-03-06T05:48:47.739Z,9.679570
2023-03-06T05:49:47.716Z,9.679570
2023-03-06T05:50:47.738Z,9.679570
2023-03-06T05:51:47.741Z,9.679570
2023-03-06T05:52:47.707Z,9.679570
2023-03-06T05:53:47.704Z,9.679570
2023-03-06T05:54:47.695Z,9.679570
2023-03-06T05:55:47.679Z,9.679570
2023-03-06T05:56:47.687Z,9.679570
2023-03-06T05:57:47.689Z,9.679570
2023-03-06T05:58:47.683Z,9.679570
2023-03-06T05:59:47.664Z,9.679570
2023-03-06T06:00:47.658Z,9.679570
2023-03-06T06:01:47.669Z,9.679570
2023-03-06T06:02:47.640Z,9.678905
2023-03-06T06:03:47.665Z,9.678921
2023-03-06T06:04:47.621Z,9.679199
2023-03-06T06:05:47.621Z,9.679090
2023-03-06T06:06:47.634Z,9.680385
2023-03-06T06:07:47.603Z,9.681302
2023-03-06T06:08:47.596Z,9.680793
2023-03-06T06:09:47.588Z,9.680793
2023-03-06T06:10:47.591Z,9.680890
2023-03-06T06:11:47.565Z,9.681285
2023-03-06T06:12:47.564Z,9.681363
2023-03-06T06:13:47.573Z,9.681363
2023-03-06T06:14:47.550Z,9.681388
2023-03-06T06:15:47.567Z,9.681839
2023-03-06T06:16:47.562Z,9.681839
2023-03-06T06:17:47.533Z,9.681737
2023-03-06T06:18:47.545Z,9.681539
2023-03-06T06:19:47.524Z,9.681599
2023-03-06T06:20:47.507Z,9.681789
2023-03-06T06:21:47.499Z,9.681789
2023-03-06T06:22:47.548Z,9.681789
2023-03-06T06:23:54.519Z,9.681854
2023-03-06T06:24:47.499Z,9.681482
2023-03-06T06:25:47.489Z,9.681254
2023-03-06T06:26:47.475Z,9.681254
2023-03-06T06:27:47.480Z,9.681275
2023-03-06T06:28:47.485Z,9.681275
2023-03-06T06:29:47.463Z,9.681231
2023-03-06T06:30:47.475Z,9.681231
2023-03-06T06:31:47.446Z,9.681231
2023-03-06T06:32:47.466Z,9.681231
2023-03-06T06:33:47.439Z,9.681231
2023-03-06T06:34:47.461Z,9.681231
2023-03-06T06:35:47.438Z,9.681231
2023-03-06T06:36:47.426Z,9.681231
2023-03-06T06:37:47.410Z,9.681231
2023-03-06T06:38:47.407Z,9.681231
2023-03-06T06:39:47.396Z,9.681231
2023-03-06T06:41:19.017Z,9.681231
2023-03-06T06:41:59.754Z,9.681231
2023-03-06T06:42:48.398Z,9.681231
2023-03-06T06:43:47.370Z,9.681171
2023-03-06T06:44:47.374Z,9.681138
2023-03-06T06:45:48.955Z,9.681046
2023-03-06T06:47:21.331Z,9.681197
2023-03-06T06:47:48.364Z,9.681458
2023-03-06T06:48:47.355Z,9.681246
2023-03-06T06:49:47.391Z,9.681129
2023-03-06T06:50:47.330Z,9.681097
2023-03-06T06:51:47.329Z,9.681045
2023-03-06T06:52:47.317Z,9.681021
2023-03-06T06:53:47.314Z,9.681007
2023-03-06T06:54:47.334Z,9.680932
2023-03-06T06:55:47.295Z,9.680902
2023-03-06T06:56:47.299Z,9.680962
2023-03-06T06:57:47.292Z,9.681104
2023-03-06T06:58:47.283Z,9.681143
2023-03-06T06:59:47.280Z,9.681306
2023-03-06T07:00:47.269Z,9.681306
2023-03-06T07:01:47.301Z,9.681306
2023-03-06T07:02:47.271Z,9.681306
2023-03-06T07:03:47.266Z,9.681306
2023-03-06T07:05:02.623Z,9.681306
2023-03-06T07:05:48.239Z,9.680706
2023-03-06T07:06:47.228Z,9.681135
2023-03-06T07:07:47.243Z,9.681521
2023-03-06T07:08:47.217Z,9.681442
2023-03-06T07:09:47.213Z,9.681196
2023-03-06T07:10:47.209Z,9.681351
2023-03-06T07:11:47.206Z,9.681524
2023-03-06T07:12:47.219Z,9.681560
2023-03-06T07:13:47.209Z,9.681350
2023-03-06T07:14:47.184Z,9.681249
2023-03-06T07:15:47.188Z,9.681142
2023-03-06T07:16:47.167Z,9.681302
2023-03-06T07:17:49.564Z,9.681007
2023-03-06T07:18:47.171Z,9.681208
2023-03-06T07:19:47.152Z,9.681335
2023-03-06T07:20:47.175Z,9.681239
2023-03-06T07:21:47.156Z,9.681113
2023-03-06T07:22:51.233Z,9.680951
2023-03-06T07:23:47.139Z,9.681390
2023-03-06T07:24:47.137Z,9.681026
2023-03-06T07:25:47.113Z,9.681354
2023-03-06T07:26:47.111Z,9.681546
2023-03-06T07:27:53.360Z,9.681400
2023-03-06T07:28:52.654Z,9.682129
2023-03-06T07:29:47.100Z,9.682656
2023-03-06T07:30:47.085Z,9.681371
2023-03-06T07:31:47.071Z,9.681270
2023-03-06T07:32:47.075Z,9.681276
2023-03-06T07:33:47.064Z,9.681266
2023-03-06T07:34:47.073Z,9.681220
2023-03-06T07:35:47.052Z,9.681233
2023-03-06T07:36:47.067Z,9.681273
2023-03-06T07:37:47.053Z,9.681137
2023-03-06T07:38:47.034Z,9.681365
2023-03-06T07:39:47.061Z,9.681565
2023-03-06T07:40:47.030Z,9.681297
2023-03-06T07:41:47.039Z,9.681366
2023-03-06T07:42:47.017Z,9.681172
2023-03-06T07:43:47.001Z,9.681141
2023-03-06T07:44:47.029Z,9.681012
2023-03-06T07:45:47.019Z,9.680984
2023-03-06T07:46:47.068Z,9.680847
2023-03-06T07:47:46.984Z,9.681080
2023-03-06T07:48:46.970Z,9.680945
2023-03-06T07:49:46.966Z,9.681254
2023-03-06T07:50:46.968Z,9.681297
2023-03-06T07:51:46.967Z,9.681459
2023-03-06T07:52:46.976Z,9.681533
2023-03-06T07:53:46.942Z,9.681714
2023-03-06T07:54:46.935Z,9.680883
2023-03-06T07:55:46.932Z,9.680771
2023-03-06T07:56:46.922Z,9.681400
2023-03-06T07:57:46.938Z,9.681313
2023-03-06T07:58:46.925Z,9.681417
2023-03-06T07:59:46.905Z,9.681224
2023-03-06T08:00:46.903Z,9.681687
2023-03-06T08:01:46.890Z,9.681804
2023-03-06T08:02:46.924Z,9.681344
2023-03-06T08:03:46.976Z,9.681101
2023-03-06T08:04:46.888Z,9.680992
2023-03-06T08:05:46.884Z,9.680807
2023-03-06T08:06:46.878Z,9.680658
2023-03-06T08:07:46.853Z,9.680742
2023-03-06T08:08:46.862Z,9.680630
2023-03-06T08:09:46.876Z,9.681026
2023-03-06T08:10:46.838Z,9.681523
2023-03-06T08:11:46.826Z,9.681581
2023-03-06T08:12:46.822Z,9.681273
2023-03-06T08:13:46.825Z,9.681175
2023-03-06T08:14:46.825Z,9.681117
2023-03-06T08:15:46.797Z,9.681110
2023-03-06T08:16:46.802Z,9.681156
2023-03-06T08:17:46.805Z,9.681151
2023-03-06T08:18:46.807Z,9.681222
2023-03-06T08:19:46.807Z,9.681160
2023-03-06T08:20:46.774Z,9.681278
2023-03-06T08:21:46.763Z,9.681250
2023-03-06T08:22:46.751Z,9.681133
2023-03-06T08:23:46.760Z,9.680845
2023-03-06T08:24:46.744Z,9.680939
2023-03-06T08:25:46.739Z,9.681240
2023-03-06T08:26:46.752Z,9.681057
2023-03-06T08:27:46.732Z,9.680825
2023-03-06T08:28:46.774Z,9.680969
2023-03-06T08:29:46.729Z,9.680959
2023-03-06T08:30:46.710Z,9.681098
2023-03-06T08:31:46.733Z,9.680979
2023-03-06T08:32:46.705Z,9.680861
2023-03-06T08:33:46.692Z,9.681178
2023-03-06T08:34:46.717Z,9.680842
2023-03-06T08:35:46.698Z,9.680893
2023-03-06T08:36:46.678Z,9.680863
2023-03-06T08:37:46.668Z,9.680982
2023-03-06T08:38:46.696Z,9.680804
2023-03-06T08:39:46.660Z,9.681119
2023-03-06T08:40:46.687Z,9.681211
2023-03-06T08:41:46.656Z,9.680933
2023-03-06T08:42:46.653Z,9.681096
2023-03-06T08:43:46.648Z,9.681230
2023-03-06T08:44:46.628Z,9.680924
2023-03-06T08:45:46.636Z,9.681010
2023-03-06T08:46:46.633Z,9.680967
2023-03-06T08:47:46.616Z,9.680753
2023-03-06T08:48:46.621Z,9.680787
2023-03-06T08:49:46.625Z,9.680891
2023-03-06T08:50:46.600Z,9.680960
2023-03-06T08:51:46.584Z,9.681103
2023-03-06T08:52:46.578Z,9.681048
2023-03-06T08:53:46.566Z,9.680709
2023-03-06T08:54:46.574Z,9.681021
2023-03-06T08:55:46.569Z,9.681105
2023-03-06T08:56:46.546Z,9.681260
2023-03-06T08:57:46.544Z,9.681058
2023-03-06T08:58:46.555Z,9.680951
2023-03-06T08:59:46.583Z,9.680723
2023-03-06T09:00:46.663Z,9.680890
2023-03-06T09:01:46.551Z,9.681144
2023-03-06T09:02:46.528Z,9.681172
2023-03-06T09:03:46.507Z,9.681126
2023-03-06T09:04:46.522Z,9.680893
2023-03-06T09:05:46.493Z,9.680906
2023-03-06T09:06:46.512Z,9.680956
2023-03-06T09:07:46.496Z,9.680838
2023-03-06T09:08:46.498Z,9.680982
2023-03-06T09:09:46.519Z,9.681191
2023-03-06T09:10:46.555Z,9.681241
2023-03-06T09:11:46.477Z,9.681303
2023-03-06T09:12:50.894Z,9.680960
2023-03-06T09:13:47.451Z,9.681052
2023-03-06T09:14:46.433Z,9.681127
2023-03-06T09:15:46.432Z,9.681195
2023-03-06T09:16:46.467Z,9.680959
2023-03-06T09:17:46.457Z,9.680919
2023-03-06T09:18:46.445Z,9.681030
2023-03-06T09:19:46.412Z,9.681172
2023-03-06T09:20:46.402Z,9.681128
2023-03-06T09:21:46.395Z,9.681093
2023-03-06T09:22:46.398Z,9.680903
2023-03-06T09:23:46.391Z,9.681118
2023-03-06T09:24:46.406Z,9.681204
2023-03-06T09:25:46.386Z,9.681128
2023-03-06T09:26:47.644Z,9.680988
2023-03-06T09:27:46.367Z,9.681408
2023-03-06T09:28:46.361Z,9.681430
2023-03-06T09:29:46.344Z,9.681274
2023-03-06T09:30:46.410Z,9.681252
2023-03-06T09:31:46.338Z,9.681033
2023-03-06T09:32:46.325Z,9.681144
2023-03-06T09:33:46.346Z,9.681220
2023-03-06T09:34:46.340Z,9.681183
2023-03-06T09:35:46.333Z,9.681066
2023-03-06T09:36:56.735Z,9.681155
2023-03-06T09:37:46.299Z,9.681045
2023-03-06T09:38:46.294Z,9.681056
2023-03-06T09:39:46.280Z,9.681206
2023-03-06T09:40:46.287Z,9.681191
2023-03-06T09:41:46.295Z,9.681243
2023-03-06T09:42:46.273Z,9.681200
2023-03-06T09:43:46.264Z,9.681214
2023-03-06T09:44:46.254Z,9.681338
2023-03-06T09:45:46.288Z,9.681282
2023-03-06T09:46:46.248Z,9.681334
2023-03-06T09:47:46.251Z,9.681058
2023-03-06T09:48:46.228Z,9.681083
2023-03-06T09:49:46.229Z,9.680621
2023-03-06T09:50:46.226Z,9.681022
2023-03-06T09:51:46.215Z,9.681232
2023-03-06T09:52:46.236Z,9.681409
2023-03-06T09:53:46.202Z,9.681264
2023-03-06T09:54:46.205Z,9.681220
2023-03-06T09:55:46.192Z,9.681239
2023-03-06T09:56:46.199Z,9.680920
2023-03-06T09:57:46.189Z,9.681587
2023-03-06T09:58:46.167Z,9.681524
2023-03-06T09:59:46.174Z,9.681573
2023-03-06T10:00:46.175Z,9.681038
2023-03-06T10:01:46.150Z,9.681271
2023-03-06T10:02:46.288Z,9.681376
2023-03-06T10:03:46.141Z,9.681327
2023-03-06T10:04:46.210Z,9.681297
2023-03-06T10:05:46.132Z,9.681361
2023-03-06T10:06:46.148Z,9.681794
2023-03-06T10:07:46.130Z,9.682298
2023-03-06T10:08:46.109Z,9.682307
2023-03-06T10:09:46.118Z,9.682407
2023-03-06T10:10:46.132Z,9.682163
2023-03-06T10:11:46.098Z,9.681810
2023-03-06T10:12:46.111Z,9.681838
2023-03-06T10:13:46.090Z,9.681483
2023-03-06T10:14:49.004Z,9.681364
2023-03-06T10:15:46.122Z,9.681488
2023-03-06T10:16:46.085Z,9.681533
2023-03-06T10:17:46.086Z,9.681648
2023-03-06T10:18:46.078Z,9.681630
2023-03-06T10:19:46.058Z,9.681415
2023-03-06T10:20:46.079Z,9.681495
2023-03-06T10:21:46.056Z,9.681389
2023-03-06T10:22:55.389Z,9.681448
2023-03-06T10:23:47.054Z,9.681424
2023-03-06T10:24:46.031Z,9.681417
2023-03-06T10:25:46.028Z,9.681508
2023-03-06T10:26:46.122Z,9.681443
2023-03-06T10:27:46.020Z,9.681573
2023-03-06T10:28:46.027Z,9.681380
2023-03-06T10:30:01.196Z,9.681714
2023-03-06T10:30:47.036Z,9.681385
2023-03-06T10:31:46.006Z,9.681330
2023-03-06T10:32:49.048Z,9.681383
2023-03-06T10:33:45.982Z,9.680311
2023-03-06T10:34:45.977Z,9.680141
2023-03-06T10:35:46.046Z,9.681498
2023-03-06T10:36:45.964Z,9.680892
2023-03-06T10:37:45.978Z,9.681834
2023-03-06T10:38:45.990Z,9.681744
2023-03-06T10:39:45.957Z,9.681652
2023-03-06T10:40:45.943Z,9.681309
2023-03-06T10:41:46.271Z,9.681608
2023-03-06T10:42:45.929Z,9.680786
2023-03-06T10:43:45.921Z,9.681192
2023-03-06T10:44:45.953Z,9.681192
2023-03-06T10:45:49.258Z,9.680397
2023-03-06T10:46:45.946Z,9.680655
2023-03-06T10:47:45.897Z,9.680575
2023-03-06T10:48:45.901Z,9.680229
2023-03-06T10:49:45.897Z,9.680077
2023-03-06T10:50:45.881Z,9.680757
2023-03-06T10:51:45.887Z,9.680917
2023-03-06T10:52:45.861Z,9.680917
2023-03-06T10:53:45.864Z,9.680917
2023-03-06T10:54:45.857Z,9.680917
2023-03-06T10:55:45.862Z,9.680917
2023-03-06T10:56:45.855Z,9.680917
2023-03-06T10:57:45.850Z,9.680917
2023-03-06T10:58:45.842Z,9.680917
2023-03-06T10:59:45.822Z,9.680917
2023-03-06T11:00:45.822Z,9.680917
2023-03-06T11:01:45.896Z,9.680917
2023-03-06T11:02:45.816Z,9.680595
2023-03-06T11:03:45.795Z,9.680321
2023-03-06T11:04:45.873Z,9.680102
2023-03-06T11:05:45.780Z,9.681358
2023-03-06T11:06:45.808Z,9.680425
2023-03-06T11:07:45.785Z,9.680357
2023-03-06T11:08:45.765Z,9.680357
2023-03-06T11:09:45.761Z,9.680357
2023-03-06T11:10:45.755Z,9.680357
2023-03-06T11:11:45.759Z,9.680357
2023-03-06T11:12:45.741Z,9.680357
2023-03-06T11:13:45.755Z,9.680357
2023-03-06T11:14:45.732Z,9.680357
2023-03-06T11:15:45.759Z,9.680357
2023-03-06T11:16:45.719Z,9.680639
2023-03-06T11:17:45.712Z,9.680911
2023-03-06T11:18:45.732Z,9.681221
2023-03-06T11:19:45.705Z,9.681336
2023-03-06T11:20:51.842Z,9.681238
2023-03-06T11:21:46.692Z,9.681238
2023-03-06T11:22:47.532Z,9.681238
2023-03-06T11:23:45.693Z,9.681238
2023-03-06T11:24:45.679Z,9.681238
2023-03-06T11:25:45.660Z,9.681238
2023-03-06T11:26:45.652Z,9.681238
2023-03-06T11:27:45.662Z,9.681238
2023-03-06T11:28:45.663Z,9.681238
2023-03-06T11:29:45.638Z,9.681238
2023-03-06T11:30:45.673Z,9.681238
2023-03-06T11:31:45.734Z,9.681238
2023-03-06T11:32:45.614Z,9.681238
2023-03-06T11:33:45.618Z,9.681238
2023-03-06T11:34:45.625Z,9.681238
2023-03-06T11:35:45.641Z,9.681238
2023-03-06T11:36:45.614Z,9.681238
2023-03-06T11:37:45.594Z,9.681238
2023-03-06T11:38:45.597Z,9.681238
2023-03-06T11:39:45.570Z,9.681238
2023-03-06T11:40:45.581Z,9.681238
2023-03-06T11:41:45.585Z,9.681238
2023-03-06T11:42:45.558Z,9.681238
2023-03-06T11:43:45.549Z,9.681238
2023-03-06T11:44:45.536Z,9.681238
2023-03-06T11:45:45.546Z,9.681238